createdAt,value
2023-04-17T00:01:43.086Z,3.10
2023-04-17T00:04:46.540Z,3.08
2023-04-17T00:07:49.384Z,3.10
2023-04-17T00:11:04.111Z,3.20
2023-04-17T00:14:10.392Z,2.85
2023-04-17T00:17:13.049Z,2.88
2023-04-17T00:20:15.721Z,2.90
2023-04-17T00:23:18.365Z,3.00
2023-04-17T00:26:21.069Z,2.83
2023-04-17T00:29:23.853Z,2.92
2023-04-17T00:32:26.593Z,2.90
2023-04-17T00:35:29.175Z,2.67
2023-04-17T00:38:31.878Z,2.83
2023-04-17T00:41:34.517Z,2.80
2023-04-17T00:44:37.192Z,3.30
2023-04-17T00:47:40.197Z,2.90
2023-04-17T00:50:44.783Z,2.65
2023-04-17T00:53:47.952Z,2.75
2023-04-17T00:56:52.443Z,2.83
2023-04-17T00:59:57.263Z,3.08
2023-04-17T01:03:00.016Z,3.03
2023-04-17T01:06:03.821Z,2.83
2023-04-17T01:09:06.926Z,2.92
2023-04-17T01:12:24.112Z,3.00
2023-04-17T01:15:27.024Z,2.70
2023-04-17T01:18:29.623Z,2.90
2023-04-17T01:21:32.752Z,2.80
2023-04-17T01:24:36.142Z,2.95
2023-04-17T01:27:38.956Z,2.47
2023-04-17T01:30:41.914Z,2.70
2023-04-17T01:33:44.716Z,2.67
2023-04-17T01:36:47.435Z,2.70
2023-04-17T01:39:50.082Z,2.60
2023-04-17T01:42:52.693Z,2.77
2023-04-17T01:45:55.584Z,2.70
2023-04-17T01:48:58.173Z,2.72
2023-04-17T01:52:01.461Z,2.80
2023-04-17T01:55:04.600Z,2.83
2023-04-17T01:58:07.174Z,2.70
2023-04-17T02:01:09.769Z,2.40
2023-04-17T02:04:12.636Z,2.90
2023-04-17T02:07:15.418Z,2.70
2023-04-17T02:10:17.933Z,2.40
2023-04-17T02:13:20.467Z,2.33
2023-04-17T02:16:23.414Z,2.40
2023-04-17T02:19:26.323Z,2.63
2023-04-17T02:22:29.442Z,2.67
2023-04-17T02:25:34.272Z,2.20
2023-04-17T02:28:36.986Z,2.47
2023-04-17T02:31:41.633Z,2.28
2023-04-17T02:34:47.000Z,2.60
2023-04-17T02:37:52.744Z,2.50
2023-04-17T02:40:58.711Z,2.45
2023-04-17T02:44:03.260Z,2.60
2023-04-17T02:47:06.313Z,2.67
2023-04-17T02:50:10.279Z,2.50
2023-04-17T02:53:21.329Z,2.30
2023-04-17T02:56:24.784Z,2.55
2023-04-17T02:59:28.080Z,2.63
2023-04-17T03:02:30.936Z,2.63
2023-04-17T03:05:33.716Z,2.60
2023-04-17T03:08:38.656Z,2.35
2023-04-17T03:11:41.819Z,2.25
2023-04-17T03:14:44.448Z,2.30
2023-04-17T03:17:47.471Z,2.38
2023-04-17T03:20:50.125Z,2.40
2023-04-17T03:23:52.678Z,2.55
2023-04-17T03:26:57.654Z,2.55
2023-04-17T03:30:02.040Z,2.60
2023-04-17T03:33:11.518Z,2.30
2023-04-17T03:36:14.056Z,2.33
2023-04-17T03:39:17.056Z,2.67
2023-04-17T03:42:19.766Z,2.70
2023-04-17T03:45:22.361Z,2.40
2023-04-17T03:48:25.266Z,2.67
2023-04-17T03:51:28.185Z,2.10
2023-04-17T03:54:36.281Z,2.20
2023-04-17T03:57:41.225Z,2.20
2023-04-17T04:00:45.856Z,2.40
2023-04-17T04:03:50.120Z,2.30
2023-04-17T04:06:54.635Z,2.33
2023-04-17T04:09:57.355Z,2.50
2023-04-17T04:13:01.889Z,2.60
2023-04-17T04:16:04.775Z,2.67
2023-04-17T04:19:10.619Z,2.60
2023-04-17T04:22:14.103Z,2.28
2023-04-17T04:25:26.625Z,2.58
2023-04-17T04:28:45.588Z,2.40
2023-04-17T04:31:57.097Z,2.50
2023-04-17T04:35:06.647Z,2.50
2023-04-17T04:38:14.080Z,2.60
2023-04-17T04:41:25.494Z,2.40
2023-04-17T04:44:29.838Z,2.80
2023-04-17T04:47:33.515Z,2.60
2023-04-17T04:50:36.700Z,2.50
2023-04-17T04:53:39.482Z,2.33
2023-04-17T04:56:45.013Z,2.40
2023-04-17T04:59:49.633Z,2.80
2023-04-17T05:03:18.411Z,2.37
2023-04-17T05:06:23.172Z,2.38
2023-04-17T05:09:32.573Z,2.65
2023-04-17T05:12:35.623Z,2.20
2023-04-17T05:15:44.062Z,2.35
2023-04-17T05:18:48.217Z,2.10
2023-04-17T05:21:54.669Z,2.40
2023-04-17T05:24:58.725Z,2.40
2023-04-17T05:28:02.387Z,2.20
2023-04-17T05:31:05.215Z,2.47
2023-04-17T05:34:13.653Z,2.37
2023-04-17T05:37:17.306Z,2.20
2023-04-17T05:40:20.622Z,2.60
2023-04-17T05:43:25.438Z,3.00
2023-04-17T05:46:29.910Z,2.38
2023-04-17T05:49:32.513Z,2.43
2023-04-17T05:52:38.695Z,2.38
2023-04-17T05:55:44.070Z,2.50
2023-04-17T05:58:48.466Z,2.63
2023-04-17T06:01:52.614Z,2.80
2023-04-17T06:04:58.600Z,2.83
2023-04-17T06:08:02.861Z,2.63
2023-04-17T06:11:06.659Z,2.80
2023-04-17T06:14:11.040Z,2.70
2023-04-17T06:17:16.069Z,2.90
2023-04-17T06:20:19.731Z,2.83
2023-04-17T06:23:22.462Z,2.40
2023-04-17T06:26:25.146Z,2.58
2023-04-17T06:29:28.296Z,2.67
2023-04-17T06:32:31.412Z,2.47
2023-04-17T06:35:35.251Z,2.80
2023-04-17T06:38:49.100Z,2.60
2023-04-17T06:41:53.887Z,2.40
2023-04-17T06:45:04.938Z,2.50
2023-04-17T06:48:07.469Z,2.75
2023-04-17T06:51:12.185Z,2.23
2023-04-17T06:54:15.830Z,2.28
2023-04-17T06:57:18.518Z,2.50
2023-04-17T07:00:21.842Z,2.10
2023-04-17T07:03:24.815Z,2.60
2023-04-17T07:06:29.022Z,2.53
2023-04-17T07:09:32.225Z,2.50
2023-04-17T07:12:35.769Z,2.60
2023-04-17T07:15:39.435Z,2.40
2023-04-17T07:18:42.175Z,2.50
2023-04-17T07:21:48.918Z,2.87
2023-04-17T07:24:52.196Z,2.15
2023-04-17T07:27:57.159Z,2.65
2023-04-17T07:31:00.414Z,2.67
2023-04-17T07:34:05.890Z,2.40
2023-04-17T07:37:11.208Z,2.50
2023-04-17T07:40:17.083Z,2.63
2023-04-17T07:43:20.964Z,2.47
2023-04-17T07:46:23.947Z,2.45
2023-04-17T07:49:27.621Z,2.30
2023-04-17T07:52:31.118Z,2.33
2023-04-17T07:55:33.902Z,2.50
2023-04-17T07:58:37.846Z,2.38
2023-04-17T08:01:42.014Z,2.70
2023-04-17T08:04:45.376Z,2.50
2023-04-17T08:07:50.407Z,3.10
2023-04-17T08:10:53.148Z,2.67
2023-04-17T08:13:56.039Z,2.60
2023-04-17T08:16:58.842Z,2.10
2023-04-17T08:20:04.596Z,2.70
2023-04-17T08:23:09.446Z,2.30
2023-04-17T08:26:13.237Z,2.42
2023-04-17T08:29:16.166Z,2.65
2023-04-17T08:32:19.734Z,2.33
2023-04-17T08:35:22.580Z,2.45
2023-04-17T08:38:27.351Z,2.80
2023-04-17T08:41:37.439Z,2.33
2023-04-17T08:44:42.606Z,2.30
2023-04-17T08:47:48.241Z,2.40
2023-04-17T08:50:53.279Z,2.63
2023-04-17T08:53:55.906Z,2.73
2023-04-17T08:57:02.559Z,2.50
2023-04-17T09:00:12.096Z,2.85
2023-04-17T09:03:17.632Z,2.65
2023-04-17T09:06:20.509Z,2.65
2023-04-17T09:09:23.114Z,2.37
2023-04-17T09:12:26.448Z,2.60
2023-04-17T09:15:29.806Z,2.53
2023-04-17T09:18:36.053Z,2.50
2023-04-17T09:21:39.306Z,2.60
2023-04-17T09:24:45.896Z,2.47
2023-04-17T09:27:48.946Z,2.40
2023-04-17T09:30:51.491Z,2.80
2023-04-17T09:34:05.717Z,2.50
2023-04-17T09:37:09.452Z,2.22
2023-04-17T09:40:12.362Z,2.40
2023-04-17T09:43:15.640Z,2.53
2023-04-17T09:46:36.060Z,2.60
2023-04-17T09:49:53.082Z,2.40
2023-04-17T09:52:57.411Z,2.60
2023-04-17T09:56:01.768Z,2.50
2023-04-17T09:59:05.940Z,2.30
2023-04-17T10:02:09.851Z,2.78
2023-04-17T10:05:14.514Z,2.55
2023-04-17T10:08:17.215Z,2.85
2023-04-17T10:11:23.911Z,2.30
2023-04-17T10:14:30.128Z,2.90
2023-04-17T10:17:37.165Z,2.33
2023-04-17T10:20:45.098Z,2.75
2023-04-17T10:23:49.852Z,2.38
2023-04-17T10:26:53.157Z,2.53
2023-04-17T10:30:01.684Z,2.53
2023-04-17T10:33:13.754Z,2.72
2023-04-17T10:36:37.982Z,2.53
2023-04-17T10:40:00.704Z,2.15
2023-04-17T10:43:26.532Z,2.20
2023-04-17T10:46:30.111Z,2.30
2023-04-17T10:49:51.938Z,2.20
2023-04-17T10:52:54.592Z,2.58
2023-04-17T10:55:58.121Z,2.83
2023-04-17T10:59:02.222Z,2.73
2023-04-17T11:02:07.748Z,2.60
2023-04-17T11:05:12.065Z,2.10
2023-04-17T11:08:18.675Z,2.10
2023-04-17T11:11:35.122Z,2.00
2023-04-17T11:14:43.319Z,2.00
2023-04-17T11:17:47.708Z,1.95
2023-04-17T11:20:50.477Z,2.33
2023-04-17T11:23:53.352Z,2.22
2023-04-17T11:26:58.445Z,1.95
2023-04-17T11:30:01.350Z,2.17
2023-04-17T11:33:06.974Z,1.90
2023-04-17T11:36:10.851Z,2.20
2023-04-17T11:39:15.952Z,2.22
2023-04-17T11:42:28.521Z,2.00
2023-04-17T11:45:33.097Z,1.90
2023-04-17T11:48:36.645Z,1.80
2023-04-17T11:51:44.622Z,1.90
2023-04-17T11:54:47.289Z,1.77
2023-04-17T11:57:52.159Z,1.95
2023-04-17T12:01:06.976Z,2.10
2023-04-17T12:04:22.008Z,3.53
2023-04-17T12:07:25.193Z,3.00
2023-04-17T12:10:40.788Z,2.72
2023-04-17T12:13:50.353Z,2.20
2023-04-17T12:16:53.139Z,2.30
2023-04-17T12:19:56.076Z,2.42
2023-04-17T12:22:58.980Z,2.28
2023-04-17T12:26:01.545Z,2.10
2023-04-17T12:29:09.980Z,2.00
2023-04-17T12:32:12.827Z,2.10
2023-04-17T12:35:16.326Z,2.08
2023-04-17T12:38:19.124Z,2.40
2023-04-17T12:41:21.733Z,2.15
2023-04-17T12:44:24.415Z,2.20
2023-04-17T12:47:28.628Z,2.40
2023-04-17T12:50:32.580Z,2.45
2023-04-17T12:53:35.587Z,2.80
2023-04-17T12:56:38.343Z,2.53
2023-04-17T12:59:40.997Z,2.13
2023-04-17T13:02:44.962Z,2.33
2023-04-17T13:05:53.349Z,2.40
2023-04-17T13:08:56.052Z,2.30
2023-04-17T13:11:59.230Z,2.25
2023-04-17T13:15:05.681Z,2.50
2023-04-17T13:18:10.559Z,1.90
2023-04-17T13:21:14.618Z,2.25
2023-04-17T13:24:17.949Z,2.13
2023-04-17T13:27:23.437Z,2.10
2023-04-17T13:30:26.469Z,2.10
2023-04-17T13:33:32.079Z,2.47
2023-04-17T13:36:34.959Z,2.35
2023-04-17T13:39:37.684Z,2.30
2023-04-17T13:42:40.418Z,2.35
2023-04-17T13:45:58.505Z,2.20
2023-04-17T13:49:02.059Z,2.30
2023-04-17T13:52:05.879Z,2.30
2023-04-17T13:55:12.937Z,2.17
2023-04-17T13:58:15.609Z,2.70
2023-04-17T14:01:18.982Z,3.83
2023-04-17T14:04:21.789Z,4.83
2023-04-17T14:07:24.624Z,4.13
2023-04-17T14:10:27.910Z,4.05
2023-04-17T14:13:30.629Z,3.78
2023-04-17T14:16:33.264Z,3.33
2023-04-17T14:19:35.951Z,3.63
2023-04-17T14:22:38.680Z,3.55
2023-04-17T14:25:41.572Z,3.30
2023-04-17T14:28:44.224Z,2.58
2023-04-17T14:31:47.308Z,2.28
2023-04-17T14:34:50.050Z,4.90
2023-04-17T14:37:53.097Z,5.57
2023-04-17T14:40:55.781Z,3.75
2023-04-17T14:43:58.427Z,3.55
2023-04-17T14:47:01.162Z,3.00
2023-04-17T14:50:05.729Z,2.20
2023-04-17T14:53:08.349Z,2.55
2023-04-17T14:56:11.395Z,2.28
2023-04-17T14:59:14.302Z,2.05
2023-04-17T15:02:17.209Z,2.15
2023-04-17T15:05:21.190Z,2.20
2023-04-17T15:08:26.612Z,2.10
2023-04-17T15:11:29.100Z,2.70
2023-04-17T15:14:31.816Z,3.35
2023-04-17T15:17:37.383Z,2.45
2023-04-17T15:20:40.473Z,2.23
2023-04-17T15:23:43.190Z,2.50
2023-04-17T15:26:46.306Z,2.28
2023-04-17T15:29:49.336Z,2.22
2023-04-17T15:32:52.005Z,2.35
2023-04-17T15:35:56.134Z,2.20
2023-04-17T15:38:58.806Z,2.25
2023-04-17T15:42:01.633Z,2.40
2023-04-17T15:45:04.717Z,2.40
2023-04-17T15:48:07.306Z,2.17
2023-04-17T15:51:09.881Z,2.40
2023-04-17T15:54:12.523Z,2.10
2023-04-17T15:57:15.107Z,2.17
2023-04-17T16:00:18.595Z,2.10
2023-04-17T16:03:21.840Z,2.03
2023-04-17T16:06:24.592Z,2.20
2023-04-17T16:09:27.390Z,2.10
2023-04-17T16:12:30.828Z,2.33
2023-04-17T16:15:33.440Z,2.13
2023-04-17T16:18:36.587Z,2.15
2023-04-17T16:21:39.331Z,1.97
2023-04-17T16:24:42.004Z,2.00
2023-04-17T16:27:44.546Z,2.10
2023-04-17T16:30:48.078Z,1.90
2023-04-17T16:33:52.615Z,2.13
2023-04-17T16:36:55.263Z,2.00
2023-04-17T16:39:57.803Z,2.30
2023-04-17T16:43:00.622Z,2.10
2023-04-17T16:46:10.885Z,2.20
2023-04-17T16:49:17.327Z,2.17
2023-04-17T16:52:20.041Z,2.00
2023-04-17T16:55:23.428Z,2.38
2023-04-17T16:58:26.005Z,1.88
2023-04-17T17:01:28.974Z,2.10
2023-04-17T17:04:31.695Z,2.03
2023-04-17T17:07:34.363Z,2.07
2023-04-17T17:10:37.091Z,1.90
2023-04-17T17:13:39.766Z,2.25
2023-04-17T17:16:42.704Z,2.10
2023-04-17T17:19:45.723Z,2.00
2023-04-17T17:22:48.372Z,2.10
2023-04-17T17:25:50.980Z,1.92
2023-04-17T17:28:54.319Z,1.95
2023-04-17T17:31:57.509Z,1.80
2023-04-17T17:35:01.106Z,2.00
2023-04-17T17:38:03.966Z,2.00
2023-04-17T17:41:07.581Z,2.25
2023-04-17T17:44:11.036Z,2.33
2023-04-17T17:47:14.262Z,2.30
2023-04-17T17:50:17.748Z,2.10
2023-04-17T17:53:25.650Z,2.10
2023-04-17T17:56:29.816Z,2.28
2023-04-17T17:59:33.144Z,2.10
2023-04-17T18:02:36.336Z,2.15
2023-04-17T18:05:39.700Z,2.50
2023-04-17T18:08:42.819Z,2.80
2023-04-17T18:12:02.185Z,2.67
2023-04-17T18:15:05.888Z,3.00
2023-04-17T18:18:09.283Z,2.83
2023-04-17T18:21:13.031Z,2.92
2023-04-17T18:24:16.403Z,2.87
2023-04-17T18:27:20.661Z,3.00
2023-04-17T18:30:23.693Z,2.85
2023-04-17T18:33:26.717Z,3.00
2023-04-17T18:36:29.861Z,3.17
2023-04-17T18:39:33.075Z,3.20
2023-04-17T18:42:36.389Z,3.33
2023-04-17T18:45:39.447Z,3.20
2023-04-17T18:48:43.341Z,3.08
2023-04-17T18:51:48.344Z,3.10
2023-04-17T18:54:51.143Z,3.10
2023-04-17T18:57:54.150Z,3.38
2023-04-17T19:00:57.691Z,3.33
2023-04-17T19:04:01.202Z,3.40
2023-04-17T19:07:04.292Z,3.35
2023-04-17T19:10:08.715Z,3.10
2023-04-17T19:13:13.069Z,3.30
2023-04-17T19:16:18.270Z,3.15
2023-04-17T19:19:21.657Z,3.20
2023-04-17T19:22:25.550Z,3.30
2023-04-17T19:25:29.103Z,3.00
2023-04-17T19:28:32.526Z,3.30
2023-04-17T19:31:36.154Z,3.20
2023-04-17T19:34:39.895Z,3.28
2023-04-17T19:37:46.512Z,3.47
2023-04-17T19:41:21.279Z,3.50
2023-04-17T19:44:26.006Z,2.85
2023-04-17T19:47:30.896Z,2.92
2023-04-17T19:50:36.308Z,3.28
2023-04-17T19:53:42.253Z,3.33
2023-04-17T19:56:45.341Z,3.23
2023-04-17T19:59:48.518Z,3.08
2023-04-17T20:02:51.597Z,3.42
2023-04-17T20:05:55.679Z,3.00
2023-04-17T20:08:59.307Z,3.38
2023-04-17T20:12:02.466Z,3.57
2023-04-17T20:15:06.238Z,3.45
2023-04-17T20:18:14.556Z,3.53
2023-04-17T20:21:18.739Z,3.08
2023-04-17T20:24:21.470Z,3.33
2023-04-17T20:27:25.290Z,3.20
2023-04-17T20:30:29.205Z,3.40
2023-04-17T20:33:32.237Z,3.10
2023-04-17T20:36:35.249Z,3.50
2023-04-17T20:39:38.169Z,3.53
2023-04-17T20:42:42.176Z,3.47
2023-04-17T20:45:44.955Z,3.70
2023-04-17T20:48:48.378Z,3.90
2023-04-17T20:51:51.470Z,3.65
2023-04-17T20:54:55.771Z,3.88
2023-04-17T20:57:58.352Z,4.23
2023-04-17T21:01:01.961Z,4.43
2023-04-17T21:04:04.802Z,5.13
2023-04-17T21:07:07.615Z,4.85
2023-04-17T21:10:10.407Z,4.80
2023-04-17T21:13:13.090Z,4.77
2023-04-17T21:16:15.727Z,4.78
2023-04-17T21:19:20.476Z,4.60
2023-04-17T21:22:23.182Z,4.80
2023-04-17T21:25:25.863Z,5.93
2023-04-17T21:28:28.783Z,4.93
2023-04-17T21:31:31.538Z,4.85
2023-04-17T21:34:34.759Z,4.93
2023-04-17T21:37:37.443Z,4.93
2023-04-17T21:40:50.563Z,4.65
2023-04-17T21:43:54.358Z,4.97
2023-04-17T21:46:57.082Z,4.50
2023-04-17T21:50:00.509Z,4.68
2023-04-17T21:53:03.300Z,4.85
2023-04-17T21:56:07.175Z,4.80
2023-04-17T21:59:09.890Z,4.60
2023-04-17T22:02:12.828Z,4.15
2023-04-17T22:05:15.542Z,4.45
2023-04-17T22:08:18.117Z,4.88
2023-04-17T22:11:21.192Z,4.30
2023-04-17T22:14:23.722Z,4.23
2023-04-17T22:17:26.514Z,4.40
2023-04-17T22:20:29.079Z,4.38
2023-04-17T22:23:31.668Z,4.18
2023-04-17T22:26:34.297Z,4.20
2023-04-17T22:29:36.957Z,4.57
2023-04-17T22:32:40.065Z,4.38
2023-04-17T22:35:42.544Z,4.75
2023-04-17T22:38:45.313Z,4.60
2023-04-17T22:41:48.515Z,4.25
2023-04-17T22:44:52.006Z,4.40
2023-04-17T22:47:54.612Z,4.45
2023-04-17T22:50:57.180Z,4.35
2023-04-17T22:54:03.477Z,4.30
2023-04-17T22:57:11.561Z,4.07
2023-04-17T23:00:14.533Z,4.60
2023-04-17T23:03:17.145Z,4.13
2023-04-17T23:06:23.576Z,4.20
2023-04-17T23:09:26.497Z,4.18
2023-04-17T23:12:29.266Z,4.75
2023-04-17T23:15:33.284Z,4.10
2023-04-17T23:18:37.364Z,4.43
2023-04-17T23:21:40.092Z,4.22
2023-04-17T23:24:42.733Z,3.85
2023-04-17T23:27:45.536Z,4.00
2023-04-17T23:30:48.143Z,4.30
2023-04-17T23:33:51.179Z,4.10
2023-04-17T23:36:53.911Z,4.15
2023-04-17T23:39:56.689Z,4.35
2023-04-17T23:42:59.622Z,4.68
2023-04-17T23:46:02.603Z,4.07
2023-04-17T23:49:06.810Z,4.25
2023-04-17T23:52:09.457Z,4.25
2023-04-17T23:55:12.180Z,4.13
2023-04-17T23:58:14.895Z,4.22
